sensor_id;sensor_type;location;lat;lon;timestamp;pressure;altitude;pressure_sealevel;temperature;humidity
72892;BME280;61032;50.782;6.818;2024-03-22T00:00:10;101160.09;;;11.21;79.08
72892;BME280;61032;50.782;6.818;2024-03-22T00:01:11;101159.75;;;11.22;78.52
72892;BME280;61032;50.782;6.818;2024-03-22T00:02:12;101155.56;;;11.25;78.50
72892;BME280;61032;50.782;6.818;2024-03-22T00:03:12;101156.38;;;11.25;78.35
72892;BME280;61032;50.782;6.818;2024-03-22T00:04:13;101149.25;;;11.24;78.23
72892;BME280;61032;50.782;6.818;2024-03-22T00:05:14;101153.94;;;11.24;78.49
72892;BME280;61032;50.782;6.818;2024-03-22T00:06:16;101154.44;;;11.26;78.20
72892;BME280;61032;50.782;6.818;2024-03-22T00:07:17;101156.69;;;11.24;78.26
72892;BME280;61032;50.782;6.818;2024-03-22T00:08:17;101155.88;;;11.23;78.15
72892;BME280;61032;50.782;6.818;2024-03-22T00:09:18;101157.19;;;11.26;78.12
72892;BME280;61032;50.782;6.818;2024-03-22T00:10:18;101163.00;;;11.24;78.43
72892;BME280;61032;50.782;6.818;2024-03-22T00:11:18;101155.56;;;11.25;78.08
72892;BME280;61032;50.782;6.818;2024-03-22T00:12:19;101153.13;;;11.23;78.28
72892;BME280;61032;50.782;6.818;2024-03-22T00:13:19;101153.94;;;11.24;78.74
72892;BME280;61032;50.782;6.818;2024-03-22T00:14:20;101153.78;;;11.20;78.39
72892;BME280;61032;50.782;6.818;2024-03-22T00:15:20;101151.34;;;11.19;78.84
72892;BME280;61032;50.782;6.818;2024-03-22T00:16:21;101150.22;;;11.20;78.81
72892;BME280;61032;50.782;6.818;2024-03-22T00:17:21;101153.28;;;11.18;78.65
72892;BME280;61032;50.782;6.818;2024-03-22T00:18:21;101144.22;;;11.18;78.49
72892;BME280;61032;50.782;6.818;2024-03-22T00:19:22;101148.59;;;11.19;78.86
72892;BME280;61032;50.782;6.818;2024-03-22T00:20:22;101148.91;;;11.17;78.84
72892;BME280;61032;50.782;6.818;2024-03-22T00:21:23;101148.09;;;11.17;78.85
72892;BME280;61032;50.782;6.818;2024-03-22T00:22:23;101149.72;;;11.18;78.87
72892;BME280;61032;50.782;6.818;2024-03-22T00:23:23;101149.72;;;11.18;78.76
72892;BME280;61032;50.782;6.818;2024-03-22T00:24:24;101143.72;;;11.16;78.75
72892;BME280;61032;50.782;6.818;2024-03-22T00:25:24;101152.47;;;11.18;79.14
72892;BME280;61032;50.782;6.818;2024-03-22T00:26:24;101141.47;;;11.18;79.08
72892;BME280;61032;50.782;6.818;2024-03-22T00:27:25;101153.09;;;11.15;78.44
72892;BME280;61032;50.782;6.818;2024-03-22T00:28:25;101148.22;;;11.12;79.05
72892;BME280;61032;50.782;6.818;2024-03-22T00:29:26;101147.25;;;11.08;79.37
72892;BME280;61032;50.782;6.818;2024-03-22T00:30:27;101144.84;;;11.15;79.39
72892;BME280;61032;50.782;6.818;2024-03-22T00:31:28;101145.97;;;11.14;79.23
72892;BME280;61032;50.782;6.818;2024-03-22T00:32:28;101147.91;;;11.13;79.21
72892;BME280;61032;50.782;6.818;2024-03-22T00:33:29;101144.22;;;11.18;78.83
72892;BME280;61032;50.782;6.818;2024-03-22T00:34:29;101148.91;;;11.17;79.38
72892;BME280;61032;50.782;6.818;2024-03-22T00:35:30;101145.84;;;11.19;79.28
72892;BME280;61032;50.782;6.818;2024-03-22T00:36:30;101140.16;;;11.15;79.32
72892;BME280;61032;50.782;6.818;2024-03-22T00:37:30;101141.28;;;11.14;79.10
72892;BME280;61032;50.782;6.818;2024-03-22T00:38:31;101136.91;;;11.13;79.54
72892;BME280;61032;50.782;6.818;2024-03-22T00:39:31;101142.09;;;11.15;79.43
72892;BME280;61032;50.782;6.818;2024-03-22T00:40:31;101139.16;;;11.11;79.12
72892;BME280;61032;50.782;6.818;2024-03-22T00:41:32;101138.53;;;11.14;79.33
72892;BME280;61032;50.782;6.818;2024-03-22T00:42:32;101140.97;;;11.16;79.53
72892;BME280;61032;50.782;6.818;2024-03-22T00:43:32;101133.16;;;11.09;79.38
72892;BME280;61032;50.782;6.818;2024-03-22T00:44:33;101141.41;;;11.09;79.11
72892;BME280;61032;50.782;6.818;2024-03-22T00:45:33;101133.63;;;11.02;79.41
72892;BME280;61032;50.782;6.818;2024-03-22T00:46:34;101140.25;;;11.01;80.27
72892;BME280;61032;50.782;6.818;2024-03-22T00:47:35;101138.66;;;11.00;80.43
72892;BME280;61032;50.782;6.818;2024-03-22T00:48:36;101133.78;;;11.06;80.00
72892;BME280;61032;50.782;6.818;2024-03-22T00:49:36;101131.84;;;11.07;79.90
72892;BME280;61032;50.782;6.818;2024-03-22T00:50:37;101125.72;;;11.10;79.93
72892;BME280;61032;50.782;6.818;2024-03-22T00:51:37;101128.47;;;11.10;79.48
72892;BME280;61032;50.782;6.818;2024-03-22T00:52:37;101132.34;;;11.09;79.56
72892;BME280;61032;50.782;6.818;2024-03-22T00:53:38;101124.41;;;11.07;79.61
72892;BME280;61032;50.782;6.818;2024-03-22T00:54:38;101117.59;;;11.05;79.39
72892;BME280;61032;50.782;6.818;2024-03-22T00:55:40;101121.00;;;11.01;79.72
72892;BME280;61032;50.782;6.818;2024-03-22T00:56:41;101122.78;;;10.97;80.04
72892;BME280;61032;50.782;6.818;2024-03-22T00:57:41;101126.16;;;10.94;79.88
72892;BME280;61032;50.782;6.818;2024-03-22T00:58:41;101114.66;;;10.92;80.37
72892;BME280;61032;50.782;6.818;2024-03-22T00:59:42;101118.84;;;10.90;80.47
72892;BME280;61032;50.782;6.818;2024-03-22T01:00:42;101121.91;;;10.88;80.55
72892;BME280;61032;50.782;6.818;2024-03-22T01:01:42;101120.91;;;10.84;80.88
72892;BME280;61032;50.782;6.818;2024-03-22T01:02:43;101115.09;;;10.86;80.49
72892;BME280;61032;50.782;6.818;2024-03-22T01:03:44;101108.28;;;10.83;80.76
72892;BME280;61032;50.782;6.818;2024-03-22T01:04:44;101108.44;;;10.78;80.87
72892;BME280;61032;50.782;6.818;2024-03-22T01:05:45;101112.00;;;10.79;80.97
72892;BME280;61032;50.782;6.818;2024-03-22T01:06:45;101102.63;;;10.80;80.90
72892;BME280;61032;50.782;6.818;2024-03-22T01:07:46;101095.19;;;10.80;81.00
72892;BME280;61032;50.782;6.818;2024-03-22T01:08:46;101093.72;;;10.83;80.91
72892;BME280;61032;50.782;6.818;2024-03-22T01:09:47;101100.69;;;10.80;80.79
72892;BME280;61032;50.782;6.818;2024-03-22T01:10:47;101090.81;;;10.79;80.65
72892;BME280;61032;50.782;6.818;2024-03-22T01:11:47;101092.91;;;10.82;80.87
72892;BME280;61032;50.782;6.818;2024-03-22T01:12:48;101087.41;;;10.82;81.03
72892;BME280;61032;50.782;6.818;2024-03-22T01:13:48;101095.84;;;10.86;81.04
72892;BME280;61032;50.782;6.818;2024-03-22T01:14:48;101088.09;;;10.88;80.65
72892;BME280;61032;50.782;6.818;2024-03-22T01:15:49;101092.78;;;10.87;80.45
72892;BME280;61032;50.782;6.818;2024-03-22T01:16:49;101086.66;;;10.90;80.26
72892;BME280;61032;50.782;6.818;2024-03-22T01:17:50;101093.78;;;10.91;80.54
72892;BME280;61032;50.782;6.818;2024-03-22T01:18:50;101076.13;;;10.92;80.27
72892;BME280;61032;50.782;6.818;2024-03-22T01:19:51;101078.56;;;10.94;80.41
72892;BME280;61032;50.782;6.818;2024-03-22T01:20:51;101078.56;;;10.94;80.42
72892;BME280;61032;50.782;6.818;2024-03-22T01:21:52;101082.63;;;10.96;80.24
72892;BME280;61032;50.782;6.818;2024-03-22T01:22:52;101083.94;;;10.99;80.22
72892;BME280;61032;50.782;6.818;2024-03-22T01:23:53;101073.75;;;10.99;79.71
72892;BME280;61032;50.782;6.818;2024-03-22T01:24:53;101074.22;;;11.01;79.93
72892;BME280;61032;50.782;6.818;2024-03-22T01:25:54;101075.03;;;11.02;80.10
72892;BME280;61032;50.782;6.818;2024-03-22T01:26:54;101067.59;;;11.02;79.64
72892;BME280;61032;50.782;6.818;2024-03-22T01:27:55;101071.97;;;11.03;80.18
72892;BME280;61032;50.782;6.818;2024-03-22T01:28:56;101073.44;;;11.10;79.50
72892;BME280;61032;50.782;6.818;2024-03-22T01:29:56;101066.81;;;11.11;79.42
72892;BME280;61032;50.782;6.818;2024-03-22T01:30:56;101072.00;;;11.12;79.21
72892;BME280;61032;50.782;6.818;2024-03-22T01:32:00;101062.13;;;11.11;79.30
72892;BME280;61032;50.782;6.818;2024-03-22T01:33:00;101067.94;;;11.10;79.24
72892;BME280;61032;50.782;6.818;2024-03-22T01:34:01;101066.63;;;11.07;79.29
72892;BME280;61032;50.782;6.818;2024-03-22T01:35:01;101066.81;;;11.11;79.12
72892;BME280;61032;50.782;6.818;2024-03-22T01:36:02;101066.00;;;11.10;79.25
72892;BME280;61032;50.782;6.818;2024-03-22T01:37:02;101067.44;;;11.08;79.51
72892;BME280;61032;50.782;6.818;2024-03-22T01:38:03;101060.94;;;11.03;79.12
72892;BME280;61032;50.782;6.818;2024-03-22T01:39:03;101058.88;;;11.00;79.49
72892;BME280;61032;50.782;6.818;2024-03-22T01:40:04;101060.13;;;11.03;79.46
72892;BME280;61032;50.782;6.818;2024-03-22T01:41:05;101054.31;;;11.05;79.31
72892;BME280;61032;50.782;6.818;2024-03-22T01:42:05;101053.81;;;11.02;79.40
72892;BME280;61032;50.782;6.818;2024-03-22T01:43:06;101046.69;;;11.01;79.93
72892;BME280;61032;50.782;6.818;2024-03-22T01:44:06;101056.56;;;11.02;79.40
72892;BME280;61032;50.782;6.818;2024-03-22T01:45:07;101047.50;;;11.02;79.69
72892;BME280;61032;50.782;6.818;2024-03-22T01:46:07;101058.69;;;11.06;79.49
72892;BME280;61032;50.782;6.818;2024-03-22T01:47:08;101054.31;;;11.05;79.63
72892;BME280;61032;50.782;6.818;2024-03-22T01:48:08;101048.31;;;11.02;79.69
72892;BME280;61032;50.782;6.818;2024-03-22T01:49:09;101048.00;;;11.04;79.96
72892;BME280;61032;50.782;6.818;2024-03-22T01:50:10;101049.94;;;11.03;79.25
72892;BME280;61032;50.782;6.818;2024-03-22T01:51:12;101048.50;;;10.97;79.35
72892;BME280;61032;50.782;6.818;2024-03-22T01:52:13;101044.94;;;10.97;79.80
72892;BME280;61032;50.782;6.818;2024-03-22T01:53:14;101047.69;;;10.97;80.39
72892;BME280;61032;50.782;6.818;2024-03-22T01:54:16;101047.69;;;10.97;80.36
72892;BME280;61032;50.782;6.818;2024-03-22T01:55:16;101044.13;;;10.96;80.38
72892;BME280;61032;50.782;6.818;2024-03-22T01:56:17;101051.25;;;10.97;79.72
72892;BME280;61032;50.782;6.818;2024-03-22T01:57:18;101046.06;;;10.96;80.29
72892;BME280;61032;50.782;6.818;2024-03-22T01:58:19;101042.81;;;11.02;79.91
72892;BME280;61032;50.782;6.818;2024-03-22T01:59:20;101046.06;;;11.05;79.92
72892;BME280;61032;50.782;6.818;2024-03-22T02:00:21;101043.63;;;11.03;79.88
72892;BME280;61032;50.782;6.818;2024-03-22T02:01:22;101049.13;;;11.03;80.10
72892;BME280;61032;50.782;6.818;2024-03-22T02:02:22;101036.50;;;11.02;80.03
72892;BME280;61032;50.782;6.818;2024-03-22T02:03:22;101034.91;;;11.01;79.60
72892;BME280;61032;50.782;6.818;2024-03-22T02:04:23;101034.09;;;11.00;80.07
72892;BME280;61032;50.782;6.818;2024-03-22T02:05:23;101025.84;;;11.00;79.77
72892;BME280;61032;50.782;6.818;2024-03-22T02:06:24;101023.09;;;11.00;80.35
72892;BME280;61032;50.782;6.818;2024-03-22T02:07:29;101024.22;;;10.99;80.01
72892;BME280;61032;50.782;6.818;2024-03-22T02:08:30;101030.19;;;11.01;79.79
72892;BME280;61032;50.782;6.818;2024-03-22T02:09:30;101028.75;;;11.04;79.71
72892;BME280;61032;50.782;6.818;2024-03-22T02:10:31;101023.41;;;11.08;80.07
72892;BME280;61032;50.782;6.818;2024-03-22T02:11:31;101012.41;;;11.08;79.63
72892;BME280;61032;50.782;6.818;2024-03-22T02:12:32;101018.72;;;11.08;79.56
72892;BME280;61032;50.782;6.818;2024-03-22T02:13:32;101015.34;;;11.11;79.77
72892;BME280;61032;50.782;6.818;2024-03-22T02:14:32;101009.03;;;11.11;79.79
72892;BME280;61032;50.782;6.818;2024-03-22T02:15:33;101016.97;;;11.12;79.34
72892;BME280;61032;50.782;6.818;2024-03-22T02:16:33;101009.38;;;11.18;79.17
72892;BME280;61032;50.782;6.818;2024-03-22T02:17:35;101014.38;;;11.16;79.41
72892;BME280;61032;50.782;6.818;2024-03-22T02:18:35;101001.94;;;11.18;78.98
72892;BME280;61032;50.782;6.818;2024-03-22T02:19:36;101010.81;;;11.24;78.98
72892;BME280;61032;50.782;6.818;2024-03-22T02:20:36;101012.28;;;11.21;79.00
72892;BME280;61032;50.782;6.818;2024-03-22T02:21:37;100999.81;;;11.24;78.65
72892;BME280;61032;50.782;6.818;2024-03-22T02:22:37;101005.31;;;11.24;79.21
72892;BME280;61032;50.782;6.818;2024-03-22T02:23:39;101000.13;;;11.22;78.85
72892;BME280;61032;50.782;6.818;2024-03-22T02:24:40;101008.25;;;11.19;78.95
72892;BME280;61032;50.782;6.818;2024-03-22T02:25:40;100997.56;;;11.17;79.40
72892;BME280;61032;50.782;6.818;2024-03-22T02:26:41;101001.75;;;11.15;79.00
72892;BME280;61032;50.782;6.818;2024-03-22T02:27:41;101007.09;;;11.11;79.18
72892;BME280;61032;50.782;6.818;2024-03-22T02:28:41;101002.72;;;11.10;79.80
72892;BME280;61032;50.782;6.818;2024-03-22T02:29:42;101007.22;;;11.06;79.92
72892;BME280;61032;50.782;6.818;2024-03-22T02:30:42;101005.94;;;11.03;80.12
72892;BME280;61032;50.782;6.818;2024-03-22T02:31:43;100999.94;;;11.01;80.41
72892;BME280;61032;50.782;6.818;2024-03-22T02:32:43;101001.22;;;11.04;80.51
72892;BME280;61032;50.782;6.818;2024-03-22T02:33:43;100998.97;;;11.06;80.09
72892;BME280;61032;50.782;6.818;2024-03-22T02:34:44;101003.66;;;11.06;79.90
72892;BME280;61032;50.782;6.818;2024-03-22T02:35:48;100992.03;;;11.09;80.26
72892;BME280;61032;50.782;6.818;2024-03-22T02:36:49;100996.06;;;11.11;79.64
72892;BME280;61032;50.782;6.818;2024-03-22T02:37:50;100996.88;;;11.12;79.87
72892;BME280;61032;50.782;6.818;2024-03-22T02:38:50;100984.25;;;11.11;79.69
72892;BME280;61032;50.782;6.818;2024-03-22T02:39:50;100994.28;;;11.07;79.27
72892;BME280;61032;50.782;6.818;2024-03-22T02:40:52;100987.97;;;11.06;80.11
72892;BME280;61032;50.782;6.818;2024-03-22T02:41:52;100986.66;;;11.03;80.09
72892;BME280;61032;50.782;6.818;2024-03-22T02:42:53;100983.78;;;11.00;79.96
72892;BME280;61032;50.782;6.818;2024-03-22T02:43:53;100991.22;;;10.99;80.42
72892;BME280;61032;50.782;6.818;2024-03-22T02:44:53;100986.16;;;11.01;80.26
72892;BME280;61032;50.782;6.818;2024-03-22T02:45:54;100986.16;;;11.01;80.07
72892;BME280;61032;50.782;6.818;2024-03-22T02:46:54;100989.09;;;10.96;80.29
72892;BME280;61032;50.782;6.818;2024-03-22T02:47:55;100981.34;;;10.98;80.68
72892;BME280;61032;50.782;6.818;2024-03-22T02:48:55;100981.84;;;11.00;80.68
72892;BME280;61032;50.782;6.818;2024-03-22T02:49:55;100986.53;;;11.00;80.68
72892;BME280;61032;50.782;6.818;2024-03-22T02:50:56;100979.72;;;11.06;80.49
72892;BME280;61032;50.782;6.818;2024-03-22T02:51:56;100978.25;;;11.09;80.16
72892;BME280;61032;50.782;6.818;2024-03-22T02:52:57;100974.88;;;11.12;80.09
72892;BME280;61032;50.782;6.818;2024-03-22T02:53:57;100972.44;;;11.10;80.04
72892;BME280;61032;50.782;6.818;2024-03-22T02:54:58;100966.28;;;11.05;80.48
72892;BME280;61032;50.782;6.818;2024-03-22T02:56:00;100962.72;;;11.04;80.24
72892;BME280;61032;50.782;6.818;2024-03-22T02:57:01;100964.00;;;11.07;80.29
72892;BME280;61032;50.782;6.818;2024-03-22T02:58:02;100966.94;;;11.10;80.24
72892;BME280;61032;50.782;6.818;2024-03-22T02:59:03;100961.13;;;11.12;80.06
72892;BME280;61032;50.782;6.818;2024-03-22T03:00:03;100960.31;;;11.11;80.14
72892;BME280;61032;50.782;6.818;2024-03-22T03:01:05;100958.38;;;11.12;80.41
72892;BME280;61032;50.782;6.818;2024-03-22T03:02:06;100954.81;;;11.11;80.76
72892;BME280;61032;50.782;6.818;2024-03-22T03:03:06;100959.50;;;11.11;80.36
72892;BME280;61032;50.782;6.818;2024-03-22T03:04:07;100959.97;;;11.13;80.19
72892;BME280;61032;50.782;6.818;2024-03-22T03:05:07;100952.84;;;11.12;80.56
72892;BME280;61032;50.782;6.818;2024-03-22T03:06:08;100956.09;;;11.14;80.46
72892;BME280;61032;50.782;6.818;2024-03-22T03:07:08;100957.72;;;11.15;80.31
72892;BME280;61032;50.782;6.818;2024-03-22T03:08:09;100957.56;;;11.20;80.18
72892;BME280;61032;50.782;6.818;2024-03-22T03:09:10;100954.50;;;11.21;80.57
72892;BME280;61032;50.782;6.818;2024-03-22T03:10:11;100954.31;;;11.18;80.40
72892;BME280;61032;50.782;6.818;2024-03-22T03:11:11;100959.19;;;11.21;80.57
72892;BME280;61032;50.782;6.818;2024-03-22T03:12:12;100952.56;;;11.22;80.44
72892;BME280;61032;50.782;6.818;2024-03-22T03:13:12;100953.00;;;11.24;80.28
72892;BME280;61032;50.782;6.818;2024-03-22T03:14:13;100951.88;;;11.25;80.29
72892;BME280;61032;50.782;6.818;2024-03-22T03:15:13;100949.28;;;11.28;80.05
72892;BME280;61032;50.782;6.818;2024-03-22T03:16:13;100943.47;;;11.30;80.37
72892;BME280;61032;50.782;6.818;2024-03-22T03:17:14;100935.84;;;11.27;80.05
72892;BME280;61032;50.782;6.818;2024-03-22T03:18:14;100940.22;;;11.28;80.17
72892;BME280;61032;50.782;6.818;2024-03-22T03:19:15;100942.50;;;11.26;80.18
72892;BME280;61032;50.782;6.818;2024-03-22T03:20:17;100944.44;;;11.25;80.54
72892;BME280;61032;50.782;6.818;2024-03-22T03:21:17;100949.13;;;11.25;80.63
72892;BME280;61032;50.782;6.818;2024-03-22T03:22:17;100950.75;;;11.26;80.84
72892;BME280;61032;50.782;6.818;2024-03-22T03:23:18;100955.44;;;11.25;80.78
72892;BME280;61032;50.782;6.818;2024-03-22T03:24:18;100951.06;;;11.24;80.96
72892;BME280;61032;50.782;6.818;2024-03-22T03:25:19;100948.00;;;11.26;80.89
72892;BME280;61032;50.782;6.818;2024-03-22T03:26:19;100954.31;;;11.26;80.90
72892;BME280;61032;50.782;6.818;2024-03-22T03:27:19;100946.53;;;11.28;80.92
72892;BME280;61032;50.782;6.818;2024-03-22T03:28:20;100945.09;;;11.31;81.08
72892;BME280;61032;50.782;6.818;2024-03-22T03:29:20;100945.91;;;11.31;80.87
72892;BME280;61032;50.782;6.818;2024-03-22T03:30:21;100942.81;;;11.33;80.71
72892;BME280;61032;50.782;6.818;2024-03-22T03:31:21;100945.75;;;11.36;80.75
72892;BME280;61032;50.782;6.818;2024-03-22T03:32:22;100943.81;;;11.37;80.78
72892;BME280;61032;50.782;6.818;2024-03-22T03:33:22;100949.47;;;11.41;80.92
72892;BME280;61032;50.782;6.818;2024-03-22T03:34:22;100947.03;;;11.39;80.79
72892;BME280;61032;50.782;6.818;2024-03-22T03:35:23;100947.53;;;11.41;80.56
72892;BME280;61032;50.782;6.818;2024-03-22T03:36:23;100950.59;;;11.40;80.96
72892;BME280;61032;50.782;6.818;2024-03-22T03:37:23;100949.78;;;11.39;80.59
72892;BME280;61032;50.782;6.818;2024-03-22T03:38:24;100942.03;;;11.41;80.86
72892;BME280;61032;50.782;6.818;2024-03-22T03:39:24;100935.38;;;11.42;80.51
72892;BME280;61032;50.782;6.818;2024-03-22T03:40:25;100941.03;;;11.46;80.68
72892;BME280;61032;50.782;6.818;2024-03-22T03:41:26;100938.13;;;11.51;80.60
72892;BME280;61032;50.782;6.818;2024-03-22T03:42:27;100932.78;;;11.54;79.99
72892;BME280;61032;50.782;6.818;2024-03-22T03:43:27;100937.47;;;11.54;80.02
72892;BME280;61032;50.782;6.818;2024-03-22T03:44:28;100928.72;;;11.52;80.23
72892;BME280;61032;50.782;6.818;2024-03-22T03:45:28;100935.03;;;11.52;80.20
72892;BME280;61032;50.782;6.818;2024-03-22T03:46:28;100923.38;;;11.55;80.36
72892;BME280;61032;50.782;6.818;2024-03-22T03:47:29;100928.06;;;11.55;80.51
72892;BME280;61032;50.782;6.818;2024-03-22T03:48:29;100933.91;;;11.53;80.30
72892;BME280;61032;50.782;6.818;2024-03-22T03:49:30;100924.50;;;11.54;80.49
72892;BME280;61032;50.782;6.818;2024-03-22T03:50:30;100927.44;;;11.58;80.49
72892;BME280;61032;50.782;6.818;2024-03-22T03:51:31;100925.97;;;11.60;80.25
72892;BME280;61032;50.782;6.818;2024-03-22T03:52:31;100925.97;;;11.60;80.39
72892;BME280;61032;50.782;6.818;2024-03-22T03:53:31;100920.47;;;11.60;80.39
72892;BME280;61032;50.782;6.818;2024-03-22T03:54:32;100924.34;;;11.59;80.42
72892;BME280;61032;50.782;6.818;2024-03-22T03:55:32;100924.50;;;11.63;80.30
72892;BME280;61032;50.782;6.818;2024-03-22T03:56:33;100918.66;;;11.64;80.17
72892;BME280;61032;50.782;6.818;2024-03-22T03:57:34;100920.75;;;11.67;80.38
72892;BME280;61032;50.782;6.818;2024-03-22T03:58:34;100923.34;;;11.73;80.07
72892;BME280;61032;50.782;6.818;2024-03-22T03:59:35;100924.00;;;11.69;80.12
72892;BME280;61032;50.782;6.818;2024-03-22T04:00:35;100917.69;;;11.69;80.35
72892;BME280;61032;50.782;6.818;2024-03-22T04:01:35;100927.88;;;11.68;80.43
72892;BME280;61032;50.782;6.818;2024-03-22T04:02:36;100917.34;;;11.70;80.23
72892;BME280;61032;50.782;6.818;2024-03-22T04:03:36;100921.25;;;11.69;80.23
72892;BME280;61032;50.782;6.818;2024-03-22T04:04:37;100917.84;;;11.73;80.32
72892;BME280;61032;50.782;6.818;2024-03-22T04:05:37;100914.75;;;11.74;80.34
72892;BME280;61032;50.782;6.818;2024-03-22T04:06:37;100913.63;;;11.75;80.04
72892;BME280;61032;50.782;6.818;2024-03-22T04:07:38;100900.66;;;11.76;79.93
72892;BME280;61032;50.782;6.818;2024-03-22T04:08:39;100906.16;;;11.76;79.99
72892;BME280;61032;50.782;6.818;2024-03-22T04:09:40;100902.78;;;11.79;79.72
72892;BME280;61032;50.782;6.818;2024-03-22T04:10:40;100902.47;;;11.80;79.56
72892;BME280;61032;50.782;6.818;2024-03-22T04:11:41;100903.28;;;11.81;79.82
72892;BME280;61032;50.782;6.818;2024-03-22T04:12:42;100903.28;;;11.81;79.64
72892;BME280;61032;50.782;6.818;2024-03-22T04:13:42;100901.81;;;11.83;79.34
72892;BME280;61032;50.782;6.818;2024-03-22T04:14:42;100907.78;;;11.85;79.02
72892;BME280;61032;50.782;6.818;2024-03-22T04:15:43;100907.94;;;11.89;79.10
72892;BME280;61032;50.782;6.818;2024-03-22T04:16:43;100894.16;;;11.89;78.89
72892;BME280;61032;50.782;6.818;2024-03-22T04:17:43;100905.66;;;11.91;78.66
72892;BME280;61032;50.782;6.818;2024-03-22T04:18:44;100905.97;;;11.89;78.74
72892;BME280;61032;50.782;6.818;2024-03-22T04:19:44;100899.00;;;11.92;78.41
72892;BME280;61032;50.782;6.818;2024-03-22T04:20:55;100899.16;;;11.95;78.44
72892;BME280;61032;50.782;6.818;2024-03-22T04:21:56;100903.88;;;11.95;78.32
72892;BME280;61032;50.782;6.818;2024-03-22T04:22:56;100894.13;;;11.97;78.40
72892;BME280;61032;50.782;6.818;2024-03-22T04:23:57;100891.38;;;11.97;78.47
72892;BME280;61032;50.782;6.818;2024-03-22T04:24:57;100891.38;;;11.97;78.12
72892;BME280;61032;50.782;6.818;2024-03-22T04:25:59;100902.41;;;11.97;78.16
72892;BME280;61032;50.782;6.818;2024-03-22T04:27:00;100890.56;;;11.97;78.09
72892;BME280;61032;50.782;6.818;2024-03-22T04:28:00;100887.81;;;11.97;78.29
72892;BME280;61032;50.782;6.818;2024-03-22T04:29:01;100895.28;;;11.96;77.87
72892;BME280;61032;50.782;6.818;2024-03-22T04:30:01;100891.22;;;11.94;78.06
72892;BME280;61032;50.782;6.818;2024-03-22T04:31:07;100889.75;;;11.96;78.21
72892;BME280;61032;50.782;6.818;2024-03-22T04:32:10;100885.72;;;11.94;77.94
72892;BME280;61032;50.782;6.818;2024-03-22T04:33:10;100893.00;;;11.90;78.16
72892;BME280;61032;50.782;6.818;2024-03-22T04:34:11;100892.53;;;11.88;78.32
72892;BME280;61032;50.782;6.818;2024-03-22T04:35:11;100883.28;;;11.92;77.84
72892;BME280;61032;50.782;6.818;2024-03-22T04:36:11;100887.34;;;11.95;78.04
72892;BME280;61032;50.782;6.818;2024-03-22T04:37:12;100879.88;;;11.95;78.02
72892;BME280;61032;50.782;6.818;2024-03-22T04:38:12;100881.50;;;11.88;78.09
72892;BME280;61032;50.782;6.818;2024-03-22T04:39:13;100876.00;;;11.88;78.14
72892;BME280;61032;50.782;6.818;2024-03-22T04:40:14;100876.81;;;11.88;78.40
72892;BME280;61032;50.782;6.818;2024-03-22T04:41:14;100876.66;;;11.85;78.34
72892;BME280;61032;50.782;6.818;2024-03-22T04:42:15;100875.53;;;11.86;78.20
72892;BME280;61032;50.782;6.818;2024-03-22T04:43:16;100879.91;;;11.87;77.96
72892;BME280;61032;50.782;6.818;2024-03-22T04:44:16;100878.28;;;11.86;78.20
72892;BME280;61032;50.782;6.818;2024-03-22T04:45:17;100866.44;;;11.85;78.19
72892;BME280;61032;50.782;6.818;2024-03-22T04:46:17;100874.38;;;11.87;78.26
72892;BME280;61032;50.782;6.818;2024-03-22T04:47:17;100869.69;;;11.87;78.10
72892;BME280;61032;50.782;6.818;2024-03-22T04:48:19;100874.88;;;11.89;78.17
72892;BME280;61032;50.782;6.818;2024-03-22T04:49:23;100872.59;;;11.91;78.19
72892;BME280;61032;50.782;6.818;2024-03-22T04:50:24;100868.22;;;11.90;77.92
72892;BME280;61032;50.782;6.818;2024-03-22T04:51:24;100869.69;;;11.87;78.07
72892;BME280;61032;50.782;6.818;2024-03-22T04:52:25;100874.38;;;11.87;78.32
72892;BME280;61032;50.782;6.818;2024-03-22T04:53:25;100864.97;;;11.88;78.31
72892;BME280;61032;50.782;6.818;2024-03-22T04:54:25;100862.88;;;11.85;78.36
72892;BME280;61032;50.782;6.818;2024-03-22T04:55:26;100863.69;;;11.85;78.14
72892;BME280;61032;50.782;6.818;2024-03-22T04:56:26;100863.38;;;11.87;77.94
72892;BME280;61032;50.782;6.818;2024-03-22T04:57:26;100864.97;;;11.88;78.25
72892;BME280;61032;50.782;6.818;2024-03-22T04:58:27;100851.22;;;11.88;78.29
72892;BME280;61032;50.782;6.818;2024-03-22T04:59:28;100857.69;;;11.92;77.91
72892;BME280;61032;50.782;6.818;2024-03-22T05:00:28;100853.31;;;11.91;77.98
72892;BME280;61032;50.782;6.818;2024-03-22T05:01:28;100855.72;;;11.92;77.90
72892;BME280;61032;50.782;6.818;2024-03-22T05:02:29;100847.31;;;11.89;78.25
72892;BME280;61032;50.782;6.818;2024-03-22T05:03:29;100846.84;;;11.87;78.02
72892;BME280;61032;50.782;6.818;2024-03-22T05:04:29;100849.09;;;11.85;78.37
72892;BME280;61032;50.782;6.818;2024-03-22T05:05:30;100843.59;;;11.85;78.19
72892;BME280;61032;50.782;6.818;2024-03-22T05:06:30;100847.78;;;11.91;78.19
72892;BME280;61032;50.782;6.818;2024-03-22T05:07:31;100848.28;;;11.93;77.93
72892;BME280;61032;50.782;6.818;2024-03-22T05:08:32;100837.75;;;11.95;77.82
72892;BME280;61032;50.782;6.818;2024-03-22T05:09:32;100842.59;;;11.98;77.88
72892;BME280;61032;50.782;6.818;2024-03-22T05:10:33;100840.78;;;12.02;77.64
72892;BME280;61032;50.782;6.818;2024-03-22T05:11:33;100840.97;;;11.97;77.61
72892;BME280;61032;50.782;6.818;2024-03-22T05:12:34;100835.47;;;11.97;77.71
72892;BME280;61032;50.782;6.818;2024-03-22T05:13:34;100842.78;;;11.93;77.99
72892;BME280;61032;50.782;6.818;2024-03-22T05:14:35;100842.13;;;11.96;77.84
72892;BME280;61032;50.782;6.818;2024-03-22T05:15:35;100834.50;;;11.93;77.73
72892;BME280;61032;50.782;6.818;2024-03-22T05:16:36;100834.66;;;11.96;77.65